sensor_id;sensor_type;location;lat;lon;timestamp;pressure;altitude;pressure_sealevel;temperature;humidity
76762;BME280;65705;51.032;13.790;2024-03-02T00:00:20;99393.25;;;11.19;89.31
76762;BME280;65705;51.032;13.790;2024-03-02T00:02:48;99380.94;;;11.19;89.50
76762;BME280;65705;51.032;13.790;2024-03-02T00:05:19;99383.09;;;11.16;89.81
76762;BME280;65705;51.032;13.790;2024-03-02T00:07:47;99385.53;;;11.17;89.28
76762;BME280;65705;51.032;13.790;2024-03-02T00:10:20;99374.66;;;11.20;89.33
76762;BME280;65705;51.032;13.790;2024-03-02T00:12:49;99365.44;;;11.24;89.15
76762;BME280;65705;51.032;13.790;2024-03-02T00:17:55;99373.97;;;11.26;88.75
76762;BME280;65705;51.032;13.790;2024-03-02T00:20:22;99376.22;;;11.29;88.77
76762;BME280;65705;51.032;13.790;2024-03-02T00:22:51;99377.59;;;11.25;89.13
76762;BME280;65705;51.032;13.790;2024-03-02T00:25:17;99373.06;;;11.19;89.48
76762;BME280;65705;51.032;13.790;2024-03-02T00:27:47;99370.25;;;11.21;89.32
76762;BME280;65705;51.032;13.790;2024-03-02T00:33:10;99366.44;;;11.23;89.20
76762;BME280;65705;51.032;13.790;2024-03-02T00:35:36;99374.97;;;11.25;88.89
76762;BME280;65705;51.032;13.790;2024-03-02T00:38:05;99382.56;;;11.20;89.17
76762;BME280;65705;51.032;13.790;2024-03-02T00:40:34;99380.22;;;11.25;89.18
76762;BME280;65705;51.032;13.790;2024-03-02T00:43:00;99377.22;;;11.28;88.97
76762;BME280;65705;51.032;13.790;2024-03-02T00:45:29;99384.66;;;11.25;89.10
76762;BME280;65705;51.032;13.790;2024-03-02T00:47:55;99378.38;;;11.26;88.98
76762;BME280;65705;51.032;13.790;2024-03-02T00:50:21;99384.09;;;11.29;89.21
76762;BME280;65705;51.032;13.790;2024-03-02T00:52:47;99381.84;;;11.26;88.95
76762;BME280;65705;51.032;13.790;2024-03-02T00:55:15;99382.03;;;11.25;89.10
76762;BME280;65705;51.032;13.790;2024-03-02T00:57:41;99383.94;;;11.31;89.01
76762;BME280;65705;51.032;13.790;2024-03-02T01:00:07;99383.47;;;11.27;88.95
76762;BME280;65705;51.032;13.790;2024-03-02T01:02:35;99385.75;;;11.30;88.52
76762;BME280;65705;51.032;13.790;2024-03-02T01:05:01;99385.28;;;11.27;88.67
76762;BME280;65705;51.032;13.790;2024-03-02T01:07:27;99378.75;;;11.23;89.05
76762;BME280;65705;51.032;13.790;2024-03-02T01:09:52;99382.72;;;11.19;89.50
76762;BME280;65705;51.032;13.790;2024-03-02T01:12:18;99370.53;;;11.11;89.98
76762;BME280;65705;51.032;13.790;2024-03-02T01:14:44;99370.22;;;11.06;90.30
76762;BME280;65705;51.032;13.790;2024-03-02T01:17:09;99369.44;;;11.06;90.25
76762;BME280;65705;51.032;13.790;2024-03-02T01:19:35;99365.16;;;11.05;90.52
76762;BME280;65705;51.032;13.790;2024-03-02T01:22:01;99359.91;;;11.05;90.55
76762;BME280;65705;51.032;13.790;2024-03-02T01:24:27;99364.00;;;11.07;90.22
76762;BME280;65705;51.032;13.790;2024-03-02T01:26:52;99364.63;;;11.09;90.21
76762;BME280;65705;51.032;13.790;2024-03-02T01:29:18;99365.53;;;11.16;89.66
76762;BME280;65705;51.032;13.790;2024-03-02T01:31:43;99371.25;;;11.20;89.50
76762;BME280;65705;51.032;13.790;2024-03-02T01:34:10;99370.44;;;11.19;89.50
76762;BME280;65705;51.032;13.790;2024-03-02T01:36:38;99373.50;;;11.23;89.07
76762;BME280;65705;51.032;13.790;2024-03-02T01:39:03;99373.25;;;11.18;89.52
76762;BME280;65705;51.032;13.790;2024-03-02T01:41:34;99371.25;;;11.20;89.46
76762;BME280;65705;51.032;13.790;2024-03-02T01:43:59;99377.41;;;11.27;89.33
76762;BME280;65705;51.032;13.790;2024-03-02T01:46:25;99365.88;;;11.28;89.02
76762;BME280;65705;51.032;13.790;2024-03-02T01:48:51;99373.41;;;11.16;89.60
76762;BME280;65705;51.032;13.790;2024-03-02T01:51:17;99372.88;;;11.21;89.64
76762;BME280;65705;51.032;13.790;2024-03-02T01:53:42;99370.25;;;11.21;89.47
76762;BME280;65705;51.032;13.790;2024-03-02T01:56:08;99364.91;;;11.14;89.81
76762;BME280;65705;51.032;13.790;2024-03-02T01:58:34;99363.38;;;11.20;89.40
76762;BME280;65705;51.032;13.790;2024-03-02T02:01:00;99366.19;;;11.18;89.23
76762;BME280;65705;51.032;13.790;2024-03-02T02:03:25;99367.09;;;11.25;89.10
76762;BME280;65705;51.032;13.790;2024-03-02T02:05:51;99352.88;;;11.20;89.23
76762;BME280;65705;51.032;13.790;2024-03-02T02:08:17;99357.66;;;11.16;89.58
76762;BME280;65705;51.032;13.790;2024-03-02T02:10:42;99350.06;;;11.21;89.30
76762;BME280;65705;51.032;13.790;2024-03-02T02:13:08;99354.66;;;11.19;89.21
76762;BME280;65705;51.032;13.790;2024-03-02T02:15:34;99354.13;;;11.09;89.86
76762;BME280;65705;51.032;13.790;2024-03-02T02:18:01;99350.41;;;11.04;90.24
76762;BME280;65705;51.032;13.790;2024-03-02T02:20:27;99355.84;;;11.02;90.37
76762;BME280;65705;51.032;13.790;2024-03-02T02:23:04;99355.66;;;11.04;90.17
76762;BME280;65705;51.032;13.790;2024-03-02T02:25:35;99361.56;;;11.06;90.03
76762;BME280;65705;51.032;13.790;2024-03-02T02:28:01;99360.38;;;11.08;89.98
76762;BME280;65705;51.032;13.790;2024-03-02T02:30:29;99355.94;;;11.09;89.80
76762;BME280;65705;51.032;13.790;2024-03-02T02:32:55;99360.19;;;11.10;89.61
76762;BME280;65705;51.032;13.790;2024-03-02T02:35:21;99360.81;;;11.12;89.57
76762;BME280;65705;51.032;13.790;2024-03-02T02:37:51;99360.81;;;11.12;89.45
76762;BME280;65705;51.032;13.790;2024-03-02T02:40:17;99361.63;;;11.12;89.57
76762;BME280;65705;51.032;13.790;2024-03-02T02:42:44;99358.47;;;11.17;89.28
76762;BME280;65705;51.032;13.790;2024-03-02T02:45:10;99355.38;;;11.13;89.27
76762;BME280;65705;51.032;13.790;2024-03-02T02:47:38;99351.78;;;11.14;89.13
76762;BME280;65705;51.032;13.790;2024-03-02T02:50:06;99346.34;;;11.16;89.00
76762;BME280;65705;51.032;13.790;2024-03-02T02:52:33;99343.06;;;11.14;88.96
76762;BME280;65705;51.032;13.790;2024-03-02T02:54:59;99349.53;;;11.11;88.84
76762;BME280;65705;51.032;13.790;2024-03-02T02:57:25;99351.78;;;11.14;88.97
76762;BME280;65705;51.032;13.790;2024-03-02T02:59:50;99357.22;;;11.13;89.17
76762;BME280;65705;51.032;13.790;2024-03-02T03:02:16;99354.78;;;11.11;89.03
76762;BME280;65705;51.032;13.790;2024-03-02T03:04:42;99349.34;;;11.13;89.19
76762;BME280;65705;51.032;13.790;2024-03-02T03:07:07;99348.69;;;11.11;89.04
76762;BME280;65705;51.032;13.790;2024-03-02T03:09:33;99343.44;;;11.11;89.01
76762;BME280;65705;51.032;13.790;2024-03-02T03:11:58;99347.34;;;11.15;89.03
76762;BME280;65705;51.032;13.790;2024-03-02T03:14:24;99352.41;;;11.16;88.67
76762;BME280;65705;51.032;13.790;2024-03-02T03:16:50;99343.16;;;11.20;88.55
76762;BME280;65705;51.032;13.790;2024-03-02T03:19:16;99343.97;;;11.21;88.57
76762;BME280;65705;51.032;13.790;2024-03-02T03:21:43;99352.88;;;11.20;88.24
76762;BME280;65705;51.032;13.790;2024-03-02T03:24:09;99348.78;;;11.17;88.54
76762;BME280;65705;51.032;13.790;2024-03-02T03:26:37;99349.59;;;11.18;88.36
76762;BME280;65705;51.032;13.790;2024-03-02T03:29:03;99346.34;;;11.16;88.30
76762;BME280;65705;51.032;13.790;2024-03-02T03:31:29;99346.25;;;11.09;88.53
76762;BME280;65705;51.032;13.790;2024-03-02T03:33:55;99346.97;;;11.03;89.05
76762;BME280;65705;51.032;13.790;2024-03-02T03:36:20;99349.50;;;10.97;89.01
76762;BME280;65705;51.032;13.790;2024-03-02T03:38:46;99348.03;;;10.94;89.45
76762;BME280;65705;51.032;13.790;2024-03-02T03:41:12;99345.31;;;10.88;89.68
76762;BME280;65705;51.032;13.790;2024-03-02T03:43:37;99347.31;;;10.86;89.83
76762;BME280;65705;51.032;13.790;2024-03-02T03:46:03;99343.03;;;10.85;90.19
76762;BME280;65705;51.032;13.790;2024-03-02T03:48:29;99337.78;;;10.85;90.43
76762;BME280;65705;51.032;13.790;2024-03-02T03:50:56;99334.56;;;10.83;90.47
76762;BME280;65705;51.032;13.790;2024-03-02T03:53:22;99337.78;;;10.85;90.47
76762;BME280;65705;51.032;13.790;2024-03-02T03:55:48;99337.00;;;10.84;90.42
76762;BME280;65705;51.032;13.790;2024-03-02T03:58:17;99331.56;;;10.86;90.30
76762;BME280;65705;51.032;13.790;2024-03-02T04:00:44;99335.81;;;10.87;90.12
76762;BME280;65705;51.032;13.790;2024-03-02T04:03:09;99340.31;;;10.78;90.17
76762;BME280;65705;51.032;13.790;2024-03-02T04:05:35;99344.75;;;10.78;90.52
76762;BME280;65705;51.032;13.790;2024-03-02T04:08:01;99339.03;;;10.74;90.72
76762;BME280;65705;51.032;13.790;2024-03-02T04:10:26;99344.94;;;10.76;90.51
76762;BME280;65705;51.032;13.790;2024-03-02T04:12:52;99343.78;;;10.79;90.51
76762;BME280;65705;51.032;13.790;2024-03-02T04:15:18;99353.09;;;10.81;90.44
76762;BME280;65705;51.032;13.790;2024-03-02T04:17:44;99349.94;;;10.86;90.26
76762;BME280;65705;51.032;13.790;2024-03-02T04:20:10;99355.19;;;10.86;90.05
76762;BME280;65705;51.032;13.790;2024-03-02T04:22:37;99363.53;;;10.89;89.88
76762;BME280;65705;51.032;13.790;2024-03-02T04:25:03;99364.63;;;10.95;89.66
76762;BME280;65705;51.032;13.790;2024-03-02T04:27:32;99359.81;;;10.98;89.37
76762;BME280;65705;51.032;13.790;2024-03-02T04:29:59;99360.19;;;10.95;89.55
76762;BME280;65705;51.032;13.790;2024-03-02T04:32:26;99356.94;;;10.93;89.48
76762;BME280;65705;51.032;13.790;2024-03-02T04:34:52;99362.88;;;10.87;89.60
76762;BME280;65705;51.032;13.790;2024-03-02T04:37:18;99366.16;;;10.89;89.51
76762;BME280;65705;51.032;13.790;2024-03-02T04:39:44;99362.06;;;10.87;89.46
76762;BME280;65705;51.032;13.790;2024-03-02T04:42:10;99362.34;;;10.77;89.89
76762;BME280;65705;51.032;13.790;2024-03-02T04:44:36;99365.94;;;10.76;90.23
76762;BME280;65705;51.032;13.790;2024-03-02T04:47:04;99375.47;;;10.77;90.33
76762;BME280;65705;51.032;13.790;2024-03-02T04:49:30;99379.34;;;10.81;90.08
76762;BME280;65705;51.032;13.790;2024-03-02T04:51:56;99374.91;;;10.82;89.92
76762;BME280;65705;51.032;13.790;2024-03-02T04:54:22;99380.44;;;10.87;89.61
76762;BME280;65705;51.032;13.790;2024-03-02T04:56:48;99382.88;;;10.88;89.61
76762;BME280;65705;51.032;13.790;2024-03-02T04:59:17;99387.16;;;10.89;89.51
76762;BME280;65705;51.032;13.790;2024-03-02T05:01:44;99390.03;;;10.94;89.36
76762;BME280;65705;51.032;13.790;2024-03-02T05:04:10;99391.69;;;10.95;89.14
76762;BME280;65705;51.032;13.790;2024-03-02T05:06:39;99393.56;;;10.87;89.41
76762;BME280;65705;51.032;13.790;2024-03-02T05:09:06;99396.53;;;10.84;89.72
76762;BME280;65705;51.032;13.790;2024-03-02T05:11:32;99397.84;;;10.88;89.67
76762;BME280;65705;51.032;13.790;2024-03-02T05:14:17;99406.34;;;10.90;89.47
76762;BME280;65705;51.032;13.790;2024-03-02T05:16:43;99404.50;;;10.90;89.28
76762;BME280;65705;51.032;13.790;2024-03-02T05:19:09;99412.50;;;10.97;89.10
76762;BME280;65705;51.032;13.790;2024-03-02T05:21:35;99420.84;;;11.00;88.73
76762;BME280;65705;51.032;13.790;2024-03-02T05:24:00;99420.03;;;11.00;88.81
76762;BME280;65705;51.032;13.790;2024-03-02T05:26:26;99422.56;;;10.93;88.94
76762;BME280;65705;51.032;13.790;2024-03-02T05:28:52;99417.31;;;10.93;89.01
76762;BME280;65705;51.032;13.790;2024-03-02T05:31:18;99413.03;;;10.92;89.02
76762;BME280;65705;51.032;13.790;2024-03-02T05:33:44;99417.13;;;10.95;88.77
76762;BME280;65705;51.032;13.790;2024-03-02T05:36:09;99417.66;;;10.90;88.73
76762;BME280;65705;51.032;13.790;2024-03-02T05:38:35;99419.75;;;10.95;88.36
76762;BME280;65705;51.032;13.790;2024-03-02T05:41:01;99432.06;;;10.94;88.21
76762;BME280;65705;51.032;13.790;2024-03-02T05:43:27;99429.25;;;10.96;87.98
76762;BME280;65705;51.032;13.790;2024-03-02T05:45:53;99430.91;;;10.97;87.77
76762;BME280;65705;51.032;13.790;2024-03-02T05:48:18;99434.31;;;10.97;87.59
76762;BME280;65705;51.032;13.790;2024-03-02T05:50:44;99430.91;;;10.97;87.60
76762;BME280;65705;51.032;13.790;2024-03-02T05:53:10;99435.13;;;10.98;87.53
76762;BME280;65705;51.032;13.790;2024-03-02T05:55:35;99441.84;;;11.00;87.29
76762;BME280;65705;51.032;13.790;2024-03-02T05:58:01;99443.84;;;10.98;87.28
76762;BME280;65705;51.032;13.790;2024-03-02T06:00:45;99450.91;;;10.98;87.08
76762;BME280;65705;51.032;13.790;2024-03-02T06:03:11;99461.41;;;10.98;87.08
76762;BME280;65705;51.032;13.790;2024-03-02T06:05:37;99460.28;;;10.92;87.45
76762;BME280;65705;51.032;13.790;2024-03-02T06:08:03;99457.66;;;10.92;87.66
76762;BME280;65705;51.032;13.790;2024-03-02T06:10:29;99463.75;;;10.93;87.46
76762;BME280;65705;51.032;13.790;2024-03-02T06:12:54;99471.44;;;10.94;87.42
76762;BME280;65705;51.032;13.790;2024-03-02T06:15:20;99475.72;;;10.95;87.50
76762;BME280;65705;51.032;13.790;2024-03-02T06:17:45;99471.63;;;10.93;87.28
76762;BME280;65705;51.032;13.790;2024-03-02T06:20:11;99479.31;;;10.94;87.58
76762;BME280;65705;51.032;13.790;2024-03-02T06:22:37;99478.16;;;10.97;87.43
76762;BME280;65705;51.032;13.790;2024-03-02T06:25:03;99476.63;;;11.02;87.23
76762;BME280;65705;51.032;13.790;2024-03-02T06:27:28;99479.09;;;11.04;86.94
76762;BME280;65705;51.032;13.790;2024-03-02T06:29:54;99475.63;;;11.03;86.79
76762;BME280;65705;51.032;13.790;2024-03-02T06:32:20;99476.19;;;10.99;86.94
76762;BME280;65705;51.032;13.790;2024-03-02T06:34:46;99471.25;;;10.96;86.94
76762;BME280;65705;51.032;13.790;2024-03-02T06:37:11;99477.97;;;10.98;86.94
76762;BME280;65705;51.032;13.790;2024-03-02T06:39:38;99478.94;;;10.97;86.58
76762;BME280;65705;51.032;13.790;2024-03-02T06:42:04;99482.94;;;10.93;86.64
76762;BME280;65705;51.032;13.790;2024-03-02T06:44:29;99491.09;;;10.98;86.48
76762;BME280;65705;51.032;13.790;2024-03-02T06:46:55;99491.28;;;10.97;86.33
76762;BME280;65705;51.032;13.790;2024-03-02T06:49:21;99498.69;;;10.93;86.21
76762;BME280;65705;51.032;13.790;2024-03-02T06:51:46;99500.31;;;10.94;86.11
76762;BME280;65705;51.032;13.790;2024-03-02T06:54:12;99502.13;;;10.94;86.18
76762;BME280;65705;51.032;13.790;2024-03-02T06:56:38;99505.56;;;10.94;86.09
76762;BME280;65705;51.032;13.790;2024-03-02T06:59:04;99512.09;;;10.98;85.75
76762;BME280;65705;51.032;13.790;2024-03-02T07:01:30;99510.47;;;10.97;85.70
76762;BME280;65705;51.032;13.790;2024-03-02T07:03:55;99515.09;;;10.95;85.58
76762;BME280;65705;51.032;13.790;2024-03-02T07:06:21;99516.91;;;10.95;85.38
76762;BME280;65705;51.032;13.790;2024-03-02T07:08:47;99519.69;;;10.93;85.40
76762;BME280;65705;51.032;13.790;2024-03-02T07:11:12;99521.78;;;10.98;85.50
76762;BME280;65705;51.032;13.790;2024-03-02T07:13:38;99520.81;;;10.99;85.39
76762;BME280;65705;51.032;13.790;2024-03-02T07:16:04;99524.06;;;11.01;84.95
76762;BME280;65705;51.032;13.790;2024-03-02T07:18:30;99515.84;;;11.04;84.46
76762;BME280;65705;51.032;13.790;2024-03-02T07:20:59;99532.56;;;11.03;84.74
76762;BME280;65705;51.032;13.790;2024-03-02T07:23:26;99527.97;;;11.05;84.66
76762;BME280;65705;51.032;13.790;2024-03-02T07:25:53;99526.63;;;11.09;84.69
76762;BME280;65705;51.032;13.790;2024-03-02T07:28:25;99518.66;;;11.02;84.63
76762;BME280;65705;51.032;13.790;2024-03-02T07:31:01;99527.50;;;11.01;84.62
76762;BME280;65705;51.032;13.790;2024-03-02T07:33:27;99530.13;;;11.01;84.66
76762;BME280;65705;51.032;13.790;2024-03-02T07:35:57;99535.19;;;11.03;84.91
76762;BME280;65705;51.032;13.790;2024-03-02T07:38:24;99536.13;;;11.10;84.84
76762;BME280;65705;51.032;13.790;2024-03-02T07:40:50;99538.59;;;11.11;84.82
76762;BME280;65705;51.032;13.790;2024-03-02T07:43:17;99538.53;;;11.19;84.61
76762;BME280;65705;51.032;13.790;2024-03-02T07:45:43;99544.47;;;11.13;84.50
76762;BME280;65705;51.032;13.790;2024-03-02T07:48:08;99545.75;;;11.17;84.34
76762;BME280;65705;51.032;13.790;2024-03-02T07:50:34;99549.69;;;11.21;84.03
76762;BME280;65705;51.032;13.790;2024-03-02T07:53:03;99554.09;;;11.21;84.03
76762;BME280;65705;51.032;13.790;2024-03-02T07:55:30;99555.03;;;11.28;83.82
76762;BME280;65705;51.032;13.790;2024-03-02T07:58:00;99567.69;;;11.24;83.99
76762;BME280;65705;51.032;13.790;2024-03-02T08:00:26;99565.91;;;11.25;84.05
76762;BME280;65705;51.032;13.790;2024-03-02T08:02:52;99566.53;;;11.27;83.79
76762;BME280;65705;51.032;13.790;2024-03-02T08:05:18;99569.16;;;11.27;83.83
76762;BME280;65705;51.032;13.790;2024-03-02T08:07:47;99564.88;;;11.26;83.81
76762;BME280;65705;51.032;13.790;2024-03-02T08:10:13;99571.63;;;11.28;83.58
76762;BME280;65705;51.032;13.790;2024-03-02T08:12:39;99566.72;;;11.25;83.55
76762;BME280;65705;51.032;13.790;2024-03-02T08:15:05;99577.22;;;11.25;83.68
76762;BME280;65705;51.032;13.790;2024-03-02T08:17:31;99573.78;;;11.25;83.66
76762;BME280;65705;51.032;13.790;2024-03-02T08:19:57;99576.59;;;11.23;83.50
76762;BME280;65705;51.032;13.790;2024-03-02T08:22:23;99578.50;;;11.29;83.14
76762;BME280;65705;51.032;13.790;2024-03-02T08:24:51;99572.25;;;11.30;82.86
76762;BME280;65705;51.032;13.790;2024-03-02T08:27:17;99577.78;;;11.35;82.56
76762;BME280;65705;51.032;13.790;2024-03-02T08:29:42;99582.69;;;11.38;82.30
76762;BME280;65705;51.032;13.790;2024-03-02T08:32:08;99583.88;;;11.36;81.60
76762;BME280;65705;51.032;13.790;2024-03-02T08:34:34;99587.59;;;11.41;81.62
76762;BME280;65705;51.032;13.790;2024-03-02T08:37:02;99594.47;;;11.42;81.82
76762;BME280;65705;51.032;13.790;2024-03-02T08:39:28;99597.41;;;11.47;81.40
76762;BME280;65705;51.032;13.790;2024-03-02T08:41:54;99598.69;;;11.51;81.23
76762;BME280;65705;51.032;13.790;2024-03-02T08:44:20;99602.97;;;11.52;80.99
76762;BME280;65705;51.032;13.790;2024-03-02T08:46:46;99596.34;;;11.56;80.69
76762;BME280;65705;51.032;13.790;2024-03-02T08:49:12;99598.06;;;11.64;80.24
76762;BME280;65705;51.032;13.790;2024-03-02T08:51:38;99593.97;;;11.70;80.13
76762;BME280;65705;51.032;13.790;2024-03-02T08:54:04;99595.50;;;11.79;79.65
76762;BME280;65705;51.032;13.790;2024-03-02T08:56:31;99578.72;;;11.80;79.20
76762;BME280;65705;51.032;13.790;2024-03-02T08:58:57;99584.47;;;11.98;79.12
76762;BME280;65705;51.032;13.790;2024-03-02T09:01:22;99583.66;;;12.12;78.38
76762;BME280;65705;51.032;13.790;2024-03-02T09:03:48;99582.84;;;12.26;77.54
76762;BME280;65705;51.032;13.790;2024-03-02T09:06:15;99591.91;;;12.38;76.92
76762;BME280;65705;51.032;13.790;2024-03-02T09:08:43;99588.19;;;12.47;76.23
76762;BME280;65705;51.032;13.790;2024-03-02T09:11:10;99582.16;;;12.53;75.76
76762;BME280;65705;51.032;13.790;2024-03-02T09:13:38;99586.16;;;12.63;75.37
76762;BME280;65705;51.032;13.790;2024-03-02T09:16:04;99585.06;;;12.73;75.04
76762;BME280;65705;51.032;13.790;2024-03-02T09:18:31;99591.66;;;12.83;74.95
76762;BME280;65705;51.032;13.790;2024-03-02T09:20:56;99598.44;;;12.92;75.10
76762;BME280;65705;51.032;13.790;2024-03-02T09:23:22;99594.41;;;12.96;74.47
76762;BME280;65705;51.032;13.790;2024-03-02T09:25:48;99601.22;;;13.05;74.21
76762;BME280;65705;51.032;13.790;2024-03-02T09:28:15;99603.75;;;13.13;73.90
76762;BME280;65705;51.032;13.790;2024-03-02T09:30:41;99606.44;;;13.20;73.62
76762;BME280;65705;51.032;13.790;2024-03-02T09:33:07;99613.66;;;13.11;72.91
76762;BME280;65705;51.032;13.790;2024-03-02T09:35:32;99610.16;;;13.04;72.56
76762;BME280;65705;51.032;13.790;2024-03-02T09:37:58;99610.16;;;13.04;72.66
76762;BME280;65705;51.032;13.790;2024-03-02T09:40:24;99619.97;;;12.96;72.99
76762;BME280;65705;51.032;13.790;2024-03-02T09:42:50;99628.59;;;12.90;72.64
76762;BME280;65705;51.032;13.790;2024-03-02T09:45:22;99626.16;;;12.88;73.16
76762;BME280;65705;51.032;13.790;2024-03-02T09:47:48;99619.81;;;12.83;73.67
76762;BME280;65705;51.032;13.790;2024-03-02T09:50:14;99622.00;;;12.79;73.81
76762;BME280;65705;51.032;13.790;2024-03-02T09:52:42;99621.81;;;12.81;74.27
76762;BME280;65705;51.032;13.790;2024-03-02T09:55:08;99616.66;;;12.73;73.81
76762;BME280;65705;51.032;13.790;2024-03-02T09:57:34;99616.66;;;12.73;73.24
76762;BME280;65705;51.032;13.790;2024-03-02T09:59:59;99621.47;;;12.69;73.52
76762;BME280;65705;51.032;13.790;2024-03-02T10:02:26;99621.47;;;12.69;73.52
76762;BME280;65705;51.032;13.790;2024-03-02T10:04:51;99610.31;;;12.67;73.77
76762;BME280;65705;51.032;13.790;2024-03-02T10:07:18;99611.28;;;12.66;73.39
76762;BME280;65705;51.032;13.790;2024-03-02T10:09:47;99611.03;;;12.61;73.46
76762;BME280;65705;51.032;13.790;2024-03-02T10:12:14;99607.22;;;12.63;73.53
76762;BME280;65705;51.032;13.790;2024-03-02T10:14:41;99599.59;;;12.68;73.29
76762;BME280;65705;51.032;13.790;2024-03-02T10:17:11;99604.00;;;12.83;72.72
76762;BME280;65705;51.032;13.790;2024-03-02T10:19:38;99595.19;;;12.90;72.46
76762;BME280;65705;51.032;13.790;2024-03-02T10:22:08;99594.97;;;13.06;71.68
76762;BME280;65705;51.032;13.790;2024-03-02T10:24:39;99599.41;;;13.06;71.79
76762;BME280;65705;51.032;13.790;2024-03-02T10:29:38;99593.72;;;13.23;70.82
76762;BME280;65705;51.032;13.790;2024-03-02T10:32:05;99588.56;;;13.36;70.58
76762;BME280;65705;51.032;13.790;2024-03-02T10:34:32;99587.88;;;13.49;70.37
76762;BME280;65705;51.032;13.790;2024-03-02T10:36:58;99585.16;;;13.63;69.92
76762;BME280;65705;51.032;13.790;2024-03-02T10:39:24;99578.78;;;13.79;69.59
76762;BME280;65705;51.032;13.790;2024-03-02T10:41:51;99574.47;;;13.99;68.43
76762;BME280;65705;51.032;13.790;2024-03-02T10:44:18;99572.69;;;14.13;67.66
76762;BME280;65705;51.032;13.790;2024-03-02T10:46:46;99575.00;;;14.22;67.16
76762;BME280;65705;51.032;13.790;2024-03-02T10:49:12;99566.34;;;14.28;66.78
76762;BME280;65705;51.032;13.790;2024-03-02T10:51:38;99568.78;;;14.30;67.04
76762;BME280;65705;51.032;13.790;2024-03-02T10:54:05;99560.25;;;14.34;66.97
76762;BME280;65705;51.032;13.790;2024-03-02T10:56:38;99553.59;;;14.45;65.93
76762;BME280;65705;51.032;13.790;2024-03-02T11:02:01;99547.19;;;14.60;64.82
76762;BME280;65705;51.032;13.790;2024-03-02T11:04:28;99549.00;;;14.60;65.36
76762;BME280;65705;51.032;13.790;2024-03-02T11:07:03;99558.56;;;14.67;64.31
76762;BME280;65705;51.032;13.790;2024-03-02T11:09:32;99552.50;;;14.80;63.72
76762;BME280;65705;51.032;13.790;2024-03-02T11:14:32;99550.91;;;14.86;63.25
76762;BME280;65705;51.032;13.790;2024-03-02T11:17:03;99554.91;;;14.68;63.50
76762;BME280;65705;51.032;13.790;2024-03-02T11:19:29;99551.25;;;14.69;62.82
76762;BME280;65705;51.032;13.790;2024-03-02T11:21:56;99555.94;;;14.67;62.15
76762;BME280;65705;51.032;13.790;2024-03-02T11:26:59;99553.44;;;14.59;61.93
76762;BME280;65705;51.032;13.790;2024-03-02T11:29:45;99554.28;;;14.66;61.71
76762;BME280;65705;51.032;13.790;2024-03-02T11:32:25;99550.88;;;14.79;61.21
76762;BME280;65705;51.032;13.790;2024-03-02T11:34:51;99554.59;;;14.91;61.85
76762;BME280;65705;51.032;13.790;2024-03-02T11:37:18;99552.97;;;15.03;60.39
76762;BME280;65705;51.032;13.790;2024-03-02T11:39:49;99553.16;;;15.08;59.88
76762;BME280;65705;51.032;13.790;2024-03-02T11:42:16;99548.72;;;15.09;60.38
76762;BME280;65705;51.032;13.790;2024-03-02T11:44:45;99551.75;;;15.06;60.39
76762;BME280;65705;51.032;13.790;2024-03-02T11:47:13;99539.72;;;14.90;59.51
76762;BME280;65705;51.032;13.790;2024-03-02T11:49:48;99547.03;;;14.88;60.78
76762;BME280;65705;51.032;13.790;2024-03-02T11:52:15;99540.34;;;14.92;61.70
76762;BME280;65705;51.032;13.790;2024-03-02T11:54:45;99535.88;;;14.93;60.75
76762;BME280;65705;51.032;13.790;2024-03-02T11:57:23;99540.34;;;14.92;60.24
76762;BME280;65705;51.032;13.790;2024-03-02T11:59:49;99537.91;;;14.97;60.81
76762;BME280;65705;51.032;13.790;2024-03-02T12:02:16;99541.56;;;14.96;60.69
76762;BME280;65705;51.032;13.790;2024-03-02T12:04:43;99541.38;;;14.98;59.79
76762;BME280;65705;51.032;13.790;2024-03-02T12:07:10;99546.25;;;14.94;60.18
76762;BME280;65705;51.032;13.790;2024-03-02T12:09:36;99538.09;;;14.89;60.86
76762;BME280;65705;51.032;13.790;2024-03-02T12:12:07;99538.28;;;14.81;60.06
76762;BME280;65705;51.032;13.790;2024-03-02T12:14:34;99533.19;;;14.73;60.49
76762;BME280;65705;51.032;13.790;2024-03-02T12:17:01;99531.34;;;14.67;60.73
76762;BME280;65705;51.032;13.790;2024-03-02T12:19:27;99535.78;;;14.53;60.67
76762;BME280;65705;51.032;13.790;2024-03-02T12:21:59;99532.31;;;14.53;61.07
76762;BME280;65705;51.032;13.790;2024-03-02T12:24:27;99541.06;;;14.53;61.18
76762;BME280;65705;51.032;13.790;2024-03-02T12:26:53;99542.47;;;14.49;60.62
76762;BME280;65705;51.032;13.790;2024-03-02T12:29:20;99536.13;;;14.44;60.70
76762;BME280;65705;51.032;13.790;2024-03-02T12:31:50;99536.16;;;14.50;60.53
76762;BME280;65705;51.032;13.790;2024-03-02T12:34:17;99528.84;;;14.52;60.14
76762;BME280;65705;51.032;13.790;2024-03-02T12:36:43;99527.03;;;14.59;60.08
76762;BME280;65705;51.032;13.790;2024-03-02T12:39:09;99526.81;;;14.48;59.77
76762;BME280;65705;51.032;13.790;2024-03-02T12:41:37;99525.63;;;14.57;58.91
76762;BME280;65705;51.032;13.790;2024-03-02T12:44:04;99523.41;;;14.60;58.58
76762;BME280;65705;51.032;13.790;2024-03-02T12:46:31;99517.91;;;14.55;58.71
76762;BME280;65705;51.032;13.790;2024-03-02T12:48:57;99524.63;;;14.64;58.69
76762;BME280;65705;51.032;13.790;2024-03-02T12:51:24;99523.41;;;14.73;58.76
76762;BME280;65705;51.032;13.790;2024-03-02T12:53:59;99523.25;;;14.88;58.22
76762;BME280;65705;51.032;13.790;2024-03-02T12:56:25;99516.38;;;15.00;58.11
76762;BME280;65705;51.032;13.790;2024-03-02T12:58:54;99515.16;;;15.09;56.89
76762;BME280;65705;51.032;13.790;2024-03-02T13:01:20;99516.59;;;15.25;56.98
76762;BME280;65705;51.032;13.790;2024-03-02T13:03:49;99517.59;;;15.24;56.50